Caneyville, Kentucky
Current Conditions -  °F | °C
As of 9:53 PM on Saturday 25 Oct 2014 (Local Time) from KBWG Reporting Station
Clear Clear  
Wind Chill: 62°   Ceiling: Unl
Heat Index: 62°   Visibility: 8mi
Dew Point: 58°   Wind: 3mph
Humidity: 86%   Direction: 230°SW
Pressure: 30.02"   Gusts: NA
Location:  37.42°N, 86.49°W
Report Text: KBWG 260253Z AUTO 23003KT 8SM CLR 17/14 A3002 RMK AO2 SLP162 T01670144 53003
Loading
Personal Weather Stations






























Interactive Weather Map
Tropical Storm Tracking
New forecast layout! Learn more

10-Day Weather Forecast

Advertisements
Track Severe Weather on mobile